sensor_id;sensor_type;location;lat;lon;timestamp;temperature;humidity
4293;DHT22;2160;51.172;6.808;2023-03-30T04:01:02;16.50;99.90
4293;DHT22;2160;51.172;6.808;2023-03-30T04:03:30;16.50;99.90
4293;DHT22;2160;51.172;6.808;2023-03-30T04:05:58;16.60;99.90
4293;DHT22;2160;51.172;6.808;2023-03-30T04:08:26;16.60;99.90
4293;DHT22;2160;51.172;6.808;2023-03-30T04:11:03;16.60;99.90
4293;DHT22;2160;51.172;6.808;2023-03-30T04:13:42;16.50;99.90
4293;DHT22;2160;51.172;6.808;2023-03-30T04:16:31;16.40;99.90
4293;DHT22;2160;51.172;6.808;2023-03-30T04:19:21;16.30;99.90
4293;DHT22;2160;51.172;6.808;2023-03-30T04:22:02;16.20;99.90
4293;DHT22;2160;51.172;6.808;2023-03-30T04:24:49;16.10;99.90
4293;DHT22;2160;51.172;6.808;2023-03-30T04:27:35;16.20;99.90
4293;DHT22;2160;51.172;6.808;2023-03-30T04:30:18;16.20;99.90
4293;DHT22;2160;51.172;6.808;2023-03-30T04:33:05;16.10;99.90
4293;DHT22;2160;51.172;6.808;2023-03-30T04:35:40;16.20;99.90
4293;DHT22;2160;51.172;6.808;2023-03-30T04:38:30;16.30;99.90
4293;DHT22;2160;51.172;6.808;2023-03-30T04:41:03;16.10;99.90
4293;DHT22;2160;51.172;6.808;2023-03-30T04:43:46;16.10;99.90
4293;DHT22;2160;51.172;6.808;2023-03-30T04:46:44;16.10;99.90
4293;DHT22;2160;51.172;6.808;2023-03-30T04:49:35;16.20;99.90
4293;DHT22;2160;51.172;6.808;2023-03-30T04:52:21;16.30;99.90
4293;DHT22;2160;51.172;6.808;2023-03-30T04:55:13;16.40;99.90
4293;DHT22;2160;51.172;6.808;2023-03-30T04:57:55;16.50;99.90
4293;DHT22;2160;51.172;6.808;2023-03-30T05:00:49;16.60;99.90
4293;DHT22;2160;51.172;6.808;2023-03-30T05:03:39;16.70;99.90
4293;DHT22;2160;51.172;6.808;2023-03-30T05:06:26;16.70;99.90
4293;DHT22;2160;51.172;6.808;2023-03-30T05:09:12;16.70;99.90
4293;DHT22;2160;51.172;6.808;2023-03-30T05:12:06;16.90;99.90
4293;DHT22;2160;51.172;6.808;2023-03-30T05:14:41;16.90;99.90
4293;DHT22;2160;51.172;6.808;2023-03-30T05:17:47;16.80;99.90
4293;DHT22;2160;51.172;6.808;2023-03-30T05:20:28;16.90;99.90
4293;DHT22;2160;51.172;6.808;2023-03-30T05:23:16;17.10;99.90
4293;DHT22;2160;51.172;6.808;2023-03-30T05:25:49;17.10;99.90
4293;DHT22;2160;51.172;6.808;2023-03-30T05:28:42;17.10;99.90
4293;DHT22;2160;51.172;6.808;2023-03-30T05:31:27;17.10;99.90
4293;DHT22;2160;51.172;6.808;2023-03-30T05:34:10;17.10;99.90
4293;DHT22;2160;51.172;6.808;2023-03-30T05:36:43;17.10;99.90
4293;DHT22;2160;51.172;6.808;2023-03-30T05:39:38;17.10;99.90
4293;DHT22;2160;51.172;6.808;2023-03-30T05:42:31;17.00;99.90
4293;DHT22;2160;51.172;6.808;2023-03-30T05:45:07;17.00;99.90
4293;DHT22;2160;51.172;6.808;2023-03-30T05:48:01;17.00;99.90
4293;DHT22;2160;51.172;6.808;2023-03-30T05:51:00;17.10;99.90
4293;DHT22;2160;51.172;6.808;2023-03-30T05:53:53;17.10;99.90
4293;DHT22;2160;51.172;6.808;2023-03-30T05:56:40;17.10;99.90
4293;DHT22;2160;51.172;6.808;2023-03-30T05:59:23;17.30;99.90
4293;DHT22;2160;51.172;6.808;2023-03-30T06:02:09;17.40;99.90
4293;DHT22;2160;51.172;6.808;2023-03-30T06:04:38;17.40;99.90
4293;DHT22;2160;51.172;6.808;2023-03-30T06:07:05;17.50;99.90
4293;DHT22;2160;51.172;6.808;2023-03-30T06:09:33;17.50;99.90
4293;DHT22;2160;51.172;6.808;2023-03-30T06:12:07;17.50;99.90
4293;DHT22;2160;51.172;6.808;2023-03-30T06:14:35;17.40;99.90
4293;DHT22;2160;51.172;6.808;2023-03-30T06:17:26;17.30;99.90
4293;DHT22;2160;51.172;6.808;2023-03-30T06:19:54;17.20;99.90
4293;DHT22;2160;51.172;6.808;2023-03-30T06:22:21;17.20;99.90
4293;DHT22;2160;51.172;6.808;2023-03-30T06:24:56;17.20;99.90
4293;DHT22;2160;51.172;6.808;2023-03-30T06:27:24;17.10;99.90
4293;DHT22;2160;51.172;6.808;2023-03-30T06:29:51;17.10;99.90
4293;DHT22;2160;51.172;6.808;2023-03-30T06:32:19;17.10;99.90
4293;DHT22;2160;51.172;6.808;2023-03-30T06:35:06;17.00;99.90
4293;DHT22;2160;51.172;6.808;2023-03-30T06:37:39;16.90;99.90
4293;DHT22;2160;51.172;6.808;2023-03-30T06:40:07;16.90;99.90
4293;DHT22;2160;51.172;6.808;2023-03-30T06:42:41;16.90;99.90
4293;DHT22;2160;51.172;6.808;2023-03-30T06:45:20;17.10;99.90
4293;DHT22;2160;51.172;6.808;2023-03-30T06:47:48;17.10;99.90
4293;DHT22;2160;51.172;6.808;2023-03-30T06:50:16;17.10;99.90
4293;DHT22;2160;51.172;6.808;2023-03-30T06:52:57;17.20;99.90
4293;DHT22;2160;51.172;6.808;2023-03-30T06:55:29;17.20;99.90
4293;DHT22;2160;51.172;6.808;2023-03-30T06:57:58;17.30;99.90
4293;DHT22;2160;51.172;6.808;2023-03-30T07:00:28;17.30;99.90
4293;DHT22;2160;51.172;6.808;2023-03-30T07:03:31;17.30;99.90
4293;DHT22;2160;51.172;6.808;2023-03-30T07:06:24;17.20;99.90
4293;DHT22;2160;51.172;6.808;2023-03-30T07:08:51;17.40;99.90
4293;DHT22;2160;51.172;6.808;2023-03-30T07:11:23;17.50;99.90
4293;DHT22;2160;51.172;6.808;2023-03-30T07:13:53;17.50;99.90
4293;DHT22;2160;51.172;6.808;2023-03-30T07:16:23;17.40;99.90
4293;DHT22;2160;51.172;6.808;2023-03-30T07:18:52;17.20;99.90
4293;DHT22;2160;51.172;6.808;2023-03-30T07:21:19;17.30;99.90
4293;DHT22;2160;51.172;6.808;2023-03-30T07:23:47;17.40;99.90
4293;DHT22;2160;51.172;6.808;2023-03-30T07:26:26;17.40;99.90
4293;DHT22;2160;51.172;6.808;2023-03-30T07:29:03;17.40;99.90
4293;DHT22;2160;51.172;6.808;2023-03-30T07:31:31;17.40;99.90
4293;DHT22;2160;51.172;6.808;2023-03-30T07:33:59;17.30;99.90
4293;DHT22;2160;51.172;6.808;2023-03-30T07:36:31;17.20;99.90
4293;DHT22;2160;51.172;6.808;2023-03-30T07:38:59;17.20;99.90
4293;DHT22;2160;51.172;6.808;2023-03-30T07:41:28;17.30;99.90
4293;DHT22;2160;51.172;6.808;2023-03-30T07:43:58;17.30;99.90
4293;DHT22;2160;51.172;6.808;2023-03-30T07:46:27;17.50;99.90
4293;DHT22;2160;51.172;6.808;2023-03-30T07:48:56;17.60;99.90
4293;DHT22;2160;51.172;6.808;2023-03-30T07:51:24;17.60;99.90
4293;DHT22;2160;51.172;6.808;2023-03-30T07:53:58;17.70;99.90
4293;DHT22;2160;51.172;6.808;2023-03-30T07:56:41;17.60;99.90
4293;DHT22;2160;51.172;6.808;2023-03-30T07:59:09;16.70;99.90
4293;DHT22;2160;51.172;6.808;2023-03-30T08:01:42;16.10;99.90
4293;DHT22;2160;51.172;6.808;2023-03-30T08:04:19;15.40;99.90
4293;DHT22;2160;51.172;6.808;2023-03-30T08:06:46;15.00;99.90
4293;DHT22;2160;51.172;6.808;2023-03-30T08:09:14;14.90;99.90
4293;DHT22;2160;51.172;6.808;2023-03-30T08:11:42;14.90;99.90
4293;DHT22;2160;51.172;6.808;2023-03-30T08:14:09;14.90;99.90
4293;DHT22;2160;51.172;6.808;2023-03-30T08:16:37;14.90;99.90
4293;DHT22;2160;51.172;6.808;2023-03-30T08:19:05;14.80;99.90
4293;DHT22;2160;51.172;6.808;2023-03-30T08:21:33;14.80;99.90
4293;DHT22;2160;51.172;6.808;2023-03-30T08:24:03;14.80;99.90
4293;DHT22;2160;51.172;6.808;2023-03-30T08:26:31;14.90;99.90
4293;DHT22;2160;51.172;6.808;2023-03-30T08:28:58;14.90;99.90
4293;DHT22;2160;51.172;6.808;2023-03-30T08:31:25;14.90;99.90
4293;DHT22;2160;51.172;6.808;2023-03-30T08:33:52;14.90;99.90
4293;DHT22;2160;51.172;6.808;2023-03-30T08:36:21;14.90;99.90
4293;DHT22;2160;51.172;6.808;2023-03-30T08:38:48;15.00;99.90
4293;DHT22;2160;51.172;6.808;2023-03-30T08:44:10;15.10;99.90
4293;DHT22;2160;51.172;6.808;2023-03-30T08:46:41;15.10;99.90
4293;DHT22;2160;51.172;6.808;2023-03-30T08:49:13;15.20;99.90
4293;DHT22;2160;51.172;6.808;2023-03-30T08:51:44;15.20;99.90
4293;DHT22;2160;51.172;6.808;2023-03-30T08:54:15;15.30;99.90
4293;DHT22;2160;51.172;6.808;2023-03-30T08:56:47;15.40;99.90
4293;DHT22;2160;51.172;6.808;2023-03-30T08:59:23;15.40;99.90
4293;DHT22;2160;51.172;6.808;2023-03-30T09:01:57;15.50;99.90
4293;DHT22;2160;51.172;6.808;2023-03-30T09:04:28;15.70;99.90
4293;DHT22;2160;51.172;6.808;2023-03-30T09:07:06;15.80;99.90
4293;DHT22;2160;51.172;6.808;2023-03-30T09:09:43;15.90;99.90
4293;DHT22;2160;51.172;6.808;2023-03-30T09:12:17;15.70;99.90
4293;DHT22;2160;51.172;6.808;2023-03-30T09:14:50;15.70;99.90
4293;DHT22;2160;51.172;6.808;2023-03-30T09:17:21;15.80;99.90
4293;DHT22;2160;51.172;6.808;2023-03-30T09:19:57;15.90;99.90
4293;DHT22;2160;51.172;6.808;2023-03-30T09:22:31;15.80;99.90
4293;DHT22;2160;51.172;6.808;2023-03-30T09:24:59;15.50;99.90
4293;DHT22;2160;51.172;6.808;2023-03-30T09:27:32;15.60;99.90
4293;DHT22;2160;51.172;6.808;2023-03-30T09:30:15;15.50;99.90
4293;DHT22;2160;51.172;6.808;2023-03-30T09:32:52;15.40;99.90
4293;DHT22;2160;51.172;6.808;2023-03-30T09:35:37;15.30;99.90
4293;DHT22;2160;51.172;6.808;2023-03-30T09:38:11;15.00;99.90
4293;DHT22;2160;51.172;6.808;2023-03-30T09:43:33;14.80;99.90
4293;DHT22;2160;51.172;6.808;2023-03-30T09:46:05;14.70;99.90
4293;DHT22;2160;51.172;6.808;2023-03-30T09:48:40;14.70;99.90
4293;DHT22;2160;51.172;6.808;2023-03-30T09:51:17;14.70;99.90
4293;DHT22;2160;51.172;6.808;2023-03-30T09:53:48;14.60;99.90
4293;DHT22;2160;51.172;6.808;2023-03-30T09:56:25;14.50;99.90
4293;DHT22;2160;51.172;6.808;2023-03-30T09:58:56;14.40;99.90
4293;DHT22;2160;51.172;6.808;2023-03-30T10:01:35;14.40;99.90
4293;DHT22;2160;51.172;6.808;2023-03-30T10:04:08;14.30;99.90
4293;DHT22;2160;51.172;6.808;2023-03-30T10:06:38;14.40;99.90
4293;DHT22;2160;51.172;6.808;2023-03-30T10:09:12;14.40;99.90
4293;DHT22;2160;51.172;6.808;2023-03-30T10:11:41;14.50;99.90
4293;DHT22;2160;51.172;6.808;2023-03-30T10:14:24;14.60;99.90
4293;DHT22;2160;51.172;6.808;2023-03-30T10:16:54;14.50;99.90
4293;DHT22;2160;51.172;6.808;2023-03-30T10:19:24;14.60;99.90
4293;DHT22;2160;51.172;6.808;2023-03-30T10:21:56;14.60;99.90
4293;DHT22;2160;51.172;6.808;2023-03-30T10:24:30;14.70;99.90
4293;DHT22;2160;51.172;6.808;2023-03-30T10:27:07;14.80;99.90
4293;DHT22;2160;51.172;6.808;2023-03-30T10:29:35;14.70;99.90
4293;DHT22;2160;51.172;6.808;2023-03-30T10:32:13;14.60;99.90
4293;DHT22;2160;51.172;6.808;2023-03-30T10:34:46;14.60;99.90
4293;DHT22;2160;51.172;6.808;2023-03-30T10:37:19;14.60;99.90
4293;DHT22;2160;51.172;6.808;2023-03-30T10:39:58;14.60;99.90
4293;DHT22;2160;51.172;6.808;2023-03-30T10:42:30;14.50;99.90
4293;DHT22;2160;51.172;6.808;2023-03-30T10:44:59;14.70;99.90
4293;DHT22;2160;51.172;6.808;2023-03-30T10:47:41;14.80;99.90
4293;DHT22;2160;51.172;6.808;2023-03-30T10:50:21;14.90;99.90
4293;DHT22;2160;51.172;6.808;2023-03-30T10:53:01;14.90;99.90
4293;DHT22;2160;51.172;6.808;2023-03-30T10:55:41;15.00;99.90
4293;DHT22;2160;51.172;6.808;2023-03-30T10:58:19;15.30;99.90
4293;DHT22;2160;51.172;6.808;2023-03-30T11:00:57;15.50;99.90
4293;DHT22;2160;51.172;6.808;2023-03-30T11:03:29;15.60;99.90
4293;DHT22;2160;51.172;6.808;2023-03-30T11:06:02;15.80;99.90
4293;DHT22;2160;51.172;6.808;2023-03-30T11:08:37;15.90;99.90
4293;DHT22;2160;51.172;6.808;2023-03-30T11:11:10;16.20;99.90
4293;DHT22;2160;51.172;6.808;2023-03-30T11:13:45;16.20;99.90
4293;DHT22;2160;51.172;6.808;2023-03-30T11:16:25;16.30;99.90
4293;DHT22;2160;51.172;6.808;2023-03-30T11:18:59;16.30;99.90
4293;DHT22;2160;51.172;6.808;2023-03-30T11:21:33;16.40;99.90
4293;DHT22;2160;51.172;6.808;2023-03-30T11:24:05;16.50;99.90
4293;DHT22;2160;51.172;6.808;2023-03-30T11:26:37;16.70;99.90
4293;DHT22;2160;51.172;6.808;2023-03-30T11:29:18;16.80;99.90
4293;DHT22;2160;51.172;6.808;2023-03-30T11:31:55;16.70;99.90
4293;DHT22;2160;51.172;6.808;2023-03-30T11:34:30;16.40;99.90
4293;DHT22;2160;51.172;6.808;2023-03-30T11:37:05;16.60;99.90
4293;DHT22;2160;51.172;6.808;2023-03-30T11:39:35;16.90;99.90
4293;DHT22;2160;51.172;6.808;2023-03-30T11:42:12;16.90;99.90
4293;DHT22;2160;51.172;6.808;2023-03-30T11:44:43;16.60;99.90
4293;DHT22;2160;51.172;6.808;2023-03-30T11:47:34;16.50;99.90
4293;DHT22;2160;51.172;6.808;2023-03-30T11:50:17;16.90;99.90
4293;DHT22;2160;51.172;6.808;2023-03-30T11:52:58;17.10;99.90
4293;DHT22;2160;51.172;6.808;2023-03-30T11:56:01;17.60;99.90
4293;DHT22;2160;51.172;6.808;2023-03-30T11:58:37;17.70;99.90
4293;DHT22;2160;51.172;6.808;2023-03-30T12:01:27;17.80;99.90
4293;DHT22;2160;51.172;6.808;2023-03-30T12:04:04;17.70;99.90
4293;DHT22;2160;51.172;6.808;2023-03-30T12:06:37;17.20;99.90
4293;DHT22;2160;51.172;6.808;2023-03-30T12:09:26;17.10;99.90
4293;DHT22;2160;51.172;6.808;2023-03-30T12:12:01;16.70;99.90
4293;DHT22;2160;51.172;6.808;2023-03-30T12:14:52;16.50;99.90
4293;DHT22;2160;51.172;6.808;2023-03-30T12:17:31;16.20;99.90
4293;DHT22;2160;51.172;6.808;2023-03-30T12:20:06;16.30;99.90
4293;DHT22;2160;51.172;6.808;2023-03-30T12:22:41;16.20;99.90
4293;DHT22;2160;51.172;6.808;2023-03-30T12:25:17;16.30;99.90
4293;DHT22;2160;51.172;6.808;2023-03-30T12:28:01;16.20;99.90
4293;DHT22;2160;51.172;6.808;2023-03-30T12:30:39;16.20;99.90
4293;DHT22;2160;51.172;6.808;2023-03-30T12:33:15;16.30;99.90
4293;DHT22;2160;51.172;6.808;2023-03-30T12:35:58;16.30;99.90
4293;DHT22;2160;51.172;6.808;2023-03-30T12:38:33;16.20;99.90
4293;DHT22;2160;51.172;6.808;2023-03-30T12:41:06;16.00;99.90
4293;DHT22;2160;51.172;6.808;2023-03-30T12:43:57;15.60;99.90
4293;DHT22;2160;51.172;6.808;2023-03-30T12:46:34;15.70;99.90
4293;DHT22;2160;51.172;6.808;2023-03-30T12:49:13;15.90;99.90
4293;DHT22;2160;51.172;6.808;2023-03-30T12:51:59;16.10;99.90
4293;DHT22;2160;51.172;6.808;2023-03-30T12:54:53;16.30;99.90
4293;DHT22;2160;51.172;6.808;2023-03-30T12:57:37;16.60;99.90
4293;DHT22;2160;51.172;6.808;2023-03-30T13:00:29;16.50;99.90
4293;DHT22;2160;51.172;6.808;2023-03-30T13:03:31;16.70;99.90
4293;DHT22;2160;51.172;6.808;2023-03-30T13:06:03;16.70;99.90
4293;DHT22;2160;51.172;6.808;2023-03-30T13:08:35;16.80;99.90
4293;DHT22;2160;51.172;6.808;2023-03-30T13:11:14;16.80;99.90
4293;DHT22;2160;51.172;6.808;2023-03-30T13:13:49;16.70;99.90
4293;DHT22;2160;51.172;6.808;2023-03-30T13:16:47;16.60;99.90
4293;DHT22;2160;51.172;6.808;2023-03-30T13:19:42;16.60;99.90
4293;DHT22;2160;51.172;6.808;2023-03-30T13:22:28;16.70;99.90
4293;DHT22;2160;51.172;6.808;2023-03-30T13:24:59;16.80;99.90
4293;DHT22;2160;51.172;6.808;2023-03-30T13:27:34;17.00;99.90
4293;DHT22;2160;51.172;6.808;2023-03-30T13:30:25;17.10;99.90
4293;DHT22;2160;51.172;6.808;2023-03-30T13:33:06;17.20;99.90
4293;DHT22;2160;51.172;6.808;2023-03-30T13:35:56;17.10;99.90
4293;DHT22;2160;51.172;6.808;2023-03-30T13:38:35;17.20;99.90
4293;DHT22;2160;51.172;6.808;2023-03-30T13:41:16;17.40;99.90
4293;DHT22;2160;51.172;6.808;2023-03-30T13:44:03;17.50;99.90
4293;DHT22;2160;51.172;6.808;2023-03-30T13:46:37;17.70;99.90
4293;DHT22;2160;51.172;6.808;2023-03-30T13:49:26;17.80;99.90
4293;DHT22;2160;51.172;6.808;2023-03-30T13:52:03;17.70;99.90
4293;DHT22;2160;51.172;6.808;2023-03-30T13:54:32;17.90;99.90
4293;DHT22;2160;51.172;6.808;2023-03-30T13:57:08;17.80;99.90
4293;DHT22;2160;51.172;6.808;2023-03-30T13:59:44;17.60;99.90
4293;DHT22;2160;51.172;6.808;2023-03-30T14:02:17;17.40;99.90
4293;DHT22;2160;51.172;6.808;2023-03-30T14:04:45;17.60;99.90
4293;DHT22;2160;51.172;6.808;2023-03-30T14:07:16;17.80;99.90
4293;DHT22;2160;51.172;6.808;2023-03-30T14:10:03;17.90;99.90
4293;DHT22;2160;51.172;6.808;2023-03-30T14:12:31;18.20;99.90
4293;DHT22;2160;51.172;6.808;2023-03-30T14:15:01;18.40;99.90
4293;DHT22;2160;51.172;6.808;2023-03-30T14:17:30;18.30;99.90
4293;DHT22;2160;51.172;6.808;2023-03-30T14:20:06;18.30;99.90
4293;DHT22;2160;51.172;6.808;2023-03-30T14:22:44;18.40;99.90
4293;DHT22;2160;51.172;6.808;2023-03-30T14:25:25;18.30;99.90
4293;DHT22;2160;51.172;6.808;2023-03-30T14:27:56;17.90;99.90
4293;DHT22;2160;51.172;6.808;2023-03-30T14:30:28;17.60;99.90
4293;DHT22;2160;51.172;6.808;2023-03-30T14:33:06;17.50;99.90
4293;DHT22;2160;51.172;6.808;2023-03-30T14:35:38;17.40;99.90
4293;DHT22;2160;51.172;6.808;2023-03-30T14:38:12;17.30;99.90
4293;DHT22;2160;51.172;6.808;2023-03-30T14:40:40;17.40;99.90
4293;DHT22;2160;51.172;6.808;2023-03-30T14:43:12;17.30;99.90
4293;DHT22;2160;51.172;6.808;2023-03-30T14:45:41;17.20;99.90
4293;DHT22;2160;51.172;6.808;2023-03-30T14:48:22;17.20;99.90
4293;DHT22;2160;51.172;6.808;2023-03-30T14:50:51;17.40;99.90
4293;DHT22;2160;51.172;6.808;2023-03-30T14:53:22;17.70;99.90
4293;DHT22;2160;51.172;6.808;2023-03-30T14:55:52;17.80;99.90
4293;DHT22;2160;51.172;6.808;2023-03-30T14:58:27;18.00;99.90
4293;DHT22;2160;51.172;6.808;2023-03-30T15:00:57;17.90;99.90
4293;DHT22;2160;51.172;6.808;2023-03-30T15:03:27;17.90;99.90
4293;DHT22;2160;51.172;6.808;2023-03-30T15:05:59;17.90;99.90
4293;DHT22;2160;51.172;6.808;2023-03-30T15:08:36;18.10;99.90
4293;DHT22;2160;51.172;6.808;2023-03-30T15:11:07;18.00;99.90
4293;DHT22;2160;51.172;6.808;2023-03-30T15:13:39;17.90;99.90
4293;DHT22;2160;51.172;6.808;2023-03-30T15:16:10;18.10;99.90
4293;DHT22;2160;51.172;6.808;2023-03-30T15:18:40;18.10;99.90
4293;DHT22;2160;51.172;6.808;2023-03-30T15:21:11;18.00;99.90
4293;DHT22;2160;51.172;6.808;2023-03-30T15:23:43;17.70;99.90
4293;DHT22;2160;51.172;6.808;2023-03-30T15:26:11;17.50;99.90
4293;DHT22;2160;51.172;6.808;2023-03-30T15:28:43;17.50;99.90
4293;DHT22;2160;51.172;6.808;2023-03-30T15:31:12;17.30;99.90
4293;DHT22;2160;51.172;6.808;2023-03-30T15:33:45;17.30;99.90
4293;DHT22;2160;51.172;6.808;2023-03-30T15:36:16;17.00;99.90
4293;DHT22;2160;51.172;6.808;2023-03-30T15:38:50;16.70;99.90
4293;DHT22;2160;51.172;6.808;2023-03-30T15:41:21;16.40;99.90
4293;DHT22;2160;51.172;6.808;2023-03-30T15:43:54;16.50;99.90
4293;DHT22;2160;51.172;6.808;2023-03-30T15:46:24;16.50;99.90
4293;DHT22;2160;51.172;6.808;2023-03-30T15:48:54;16.60;99.90
4293;DHT22;2160;51.172;6.808;2023-03-30T15:51:27;16.60;99.90
4293;DHT22;2160;51.172;6.808;2023-03-30T15:54:00;16.60;99.90
4293;DHT22;2160;51.172;6.808;2023-03-30T15:56:32;16.50;99.90
4293;DHT22;2160;51.172;6.808;2023-03-30T15:59:00;16.40;99.90
4293;DHT22;2160;51.172;6.808;2023-03-30T16:01:40;16.30;99.90
4293;DHT22;2160;51.172;6.808;2023-03-30T16:04:12;16.30;99.90
4293;DHT22;2160;51.172;6.808;2023-03-30T16:06:43;16.40;99.90
4293;DHT22;2160;51.172;6.808;2023-03-30T16:09:12;16.50;99.90
4293;DHT22;2160;51.172;6.808;2023-03-30T16:11:40;16.60;99.90
4293;DHT22;2160;51.172;6.808;2023-03-30T16:14:12;16.60;99.90
4293;DHT22;2160;51.172;6.808;2023-03-30T16:16:40;16.50;99.90
4293;DHT22;2160;51.172;6.808;2023-03-30T16:19:16;16.50;99.90
4293;DHT22;2160;51.172;6.808;2023-03-30T16:21:44;16.40;99.90
4293;DHT22;2160;51.172;6.808;2023-03-30T16:24:19;16.40;99.90
4293;DHT22;2160;51.172;6.808;2023-03-30T16:26:46;16.60;99.90
4293;DHT22;2160;51.172;6.808;2023-03-30T16:29:17;16.60;99.90
4293;DHT22;2160;51.172;6.808;2023-03-30T16:31:51;16.50;99.90
4293;DHT22;2160;51.172;6.808;2023-03-30T16:34:19;16.60;99.90
4293;DHT22;2160;51.172;6.808;2023-03-30T16:36:48;16.60;99.90
4293;DHT22;2160;51.172;6.808;2023-03-30T16:39:18;16.60;99.90
4293;DHT22;2160;51.172;6.808;2023-03-30T16:41:49;16.80;99.90
4293;DHT22;2160;51.172;6.808;2023-03-30T16:44:17;17.00;99.90
4293;DHT22;2160;51.172;6.808;2023-03-30T16:46:50;17.00;99.90
4293;DHT22;2160;51.172;6.808;2023-03-30T16:49:19;17.10;99.90
4293;DHT22;2160;51.172;6.808;2023-03-30T16:51:47;17.00;99.90
4293;DHT22;2160;51.172;6.808;2023-03-30T16:54:15;16.90;99.90
4293;DHT22;2160;51.172;6.808;2023-03-30T16:56:47;16.90;99.90
4293;DHT22;2160;51.172;6.808;2023-03-30T16:59:19;17.00;99.90
4293;DHT22;2160;51.172;6.808;2023-03-30T17:01:48;16.80;99.90
4293;DHT22;2160;51.172;6.808;2023-03-30T17:04:15;16.90;99.90
4293;DHT22;2160;51.172;6.808;2023-03-30T17:06:42;16.70;99.90
4293;DHT22;2160;51.172;6.808;2023-03-30T17:09:13;16.50;99.90
4293;DHT22;2160;51.172;6.808;2023-03-30T17:11:41;16.50;99.90
4293;DHT22;2160;51.172;6.808;2023-03-30T17:14:13;16.50;99.90
4293;DHT22;2160;51.172;6.808;2023-03-30T17:16:43;16.40;99.90
4293;DHT22;2160;51.172;6.808;2023-03-30T17:19:11;16.30;99.90
4293;DHT22;2160;51.172;6.808;2023-03-30T17:21:39;16.30;99.90
4293;DHT22;2160;51.172;6.808;2023-03-30T17:24:10;16.30;99.90
4293;DHT22;2160;51.172;6.808;2023-03-30T17:26:40;16.30;99.90
4293;DHT22;2160;51.172;6.808;2023-03-30T17:29:10;16.30;99.90
4293;DHT22;2160;51.172;6.808;2023-03-30T17:31:40;16.20;99.90
4293;DHT22;2160;51.172;6.808;2023-03-30T17:34:14;16.00;99.90
4293;DHT22;2160;51.172;6.808;2023-03-30T17:36:41;16.00;99.90
4293;DHT22;2160;51.172;6.808;2023-03-30T17:39:12;16.10;99.90
4293;DHT22;2160;51.172;6.808;2023-03-30T17:41:41;16.20;99.90
4293;DHT22;2160;51.172;6.808;2023-03-30T17:44:09;16.30;99.90
4293;DHT22;2160;51.172;6.808;2023-03-30T17:46:36;16.50;99.90
4293;DHT22;2160;51.172;6.808;2023-03-30T17:49:13;16.40;99.90
4293;DHT22;2160;51.172;6.808;2023-03-30T17:51:40;16.50;99.90
4293;DHT22;2160;51.172;6.808;2023-03-30T17:54:10;16.60;99.90
4293;DHT22;2160;51.172;6.808;2023-03-30T17:56:40;16.50;99.90
4293;DHT22;2160;51.172;6.808;2023-03-30T17:59:08;16.60;99.90
4293;DHT22;2160;51.172;6.808;2023-03-30T18:01:37;16.60;99.90
4293;DHT22;2160;51.172;6.808;2023-03-30T18:04:09;16.60;99.90
4293;DHT22;2160;51.172;6.808;2023-03-30T18:06:38;16.40;99.90
4293;DHT22;2160;51.172;6.808;2023-03-30T18:09:21;16.40;99.90
4293;DHT22;2160;51.172;6.808;2023-03-30T18:11:55;16.60;99.90
4293;DHT22;2160;51.172;6.808;2023-03-30T18:14:33;16.50;99.90
4293;DHT22;2160;51.172;6.808;2023-03-30T18:17:42;16.40;99.90
4293;DHT22;2160;51.172;6.808;2023-03-30T18:20:18;16.40;99.90
4293;DHT22;2160;51.172;6.808;2023-03-30T18:22:57;16.20;99.90
4293;DHT22;2160;51.172;6.808;2023-03-30T18:25:24;16.30;99.90
4293;DHT22;2160;51.172;6.808;2023-03-30T18:27:52;16.20;99.90
4293;DHT22;2160;51.172;6.808;2023-03-30T18:30:26;16.20;99.90
4293;DHT22;2160;51.172;6.808;2023-03-30T18:32:57;16.40;99.90
4293;DHT22;2160;51.172;6.808;2023-03-30T18:35:30;16.50;99.90
4293;DHT22;2160;51.172;6.808;2023-03-30T18:37:57;16.50;99.90
4293;DHT22;2160;51.172;6.808;2023-03-30T18:40:27;16.60;99.90
4293;DHT22;2160;51.172;6.808;2023-03-30T18:42:55;16.60;99.90
4293;DHT22;2160;51.172;6.808;2023-03-30T18:45:31;16.70;99.90
4293;DHT22;2160;51.172;6.808;2023-03-30T18:48:00;16.50;99.90
4293;DHT22;2160;51.172;6.808;2023-03-30T18:50:33;16.40;99.90
4293;DHT22;2160;51.172;6.808;2023-03-30T18:53:01;16.30;99.90
4293;DHT22;2160;51.172;6.808;2023-03-30T18:55:31;16.40;99.90
4293;DHT22;2160;51.172;6.808;2023-03-30T18:58:10;16.30;99.90
4293;DHT22;2160;51.172;6.808;2023-03-30T19:00:38;16.20;99.90
4293;DHT22;2160;51.172;6.808;2023-03-30T19:03:09;16.20;99.90
4293;DHT22;2160;51.172;6.808;2023-03-30T19:05:39;16.00;99.90
4293;DHT22;2160;51.172;6.808;2023-03-30T19:08:09;15.90;99.90
4293;DHT22;2160;51.172;6.808;2023-03-30T19:10:38;15.80;99.90
4293;DHT22;2160;51.172;6.808;2023-03-30T19:13:08;15.80;99.90
4293;DHT22;2160;51.172;6.808;2023-03-30T19:15:36;15.60;99.90
4293;DHT22;2160;51.172;6.808;2023-03-30T19:18:06;15.60;99.90
4293;DHT22;2160;51.172;6.808;2023-03-30T19:20:35;15.70;99.90
4293;DHT22;2160;51.172;6.808;2023-03-30T19:23:06;15.60;99.90
4293;DHT22;2160;51.172;6.808;2023-03-30T19:25:34;15.70;99.90
4293;DHT22;2160;51.172;6.808;2023-03-30T19:28:03;15.70;99.90
4293;DHT22;2160;51.172;6.808;2023-03-30T19:30:33;15.60;99.90
4293;DHT22;2160;51.172;6.808;2023-03-30T19:33:05;15.80;99.90
4293;DHT22;2160;51.172;6.808;2023-03-30T19:35:33;15.70;99.90
4293;DHT22;2160;51.172;6.808;2023-03-30T19:38:00;15.60;99.90
4293;DHT22;2160;51.172;6.808;2023-03-30T19:40:29;15.70;99.90
4293;DHT22;2160;51.172;6.808;2023-03-30T19:42:56;15.80;99.90
4293;DHT22;2160;51.172;6.808;2023-03-30T19:45:25;15.80;99.90
4293;DHT22;2160;51.172;6.808;2023-03-30T19:47:55;15.70;99.90
4293;DHT22;2160;51.172;6.808;2023-03-30T19:50:22;15.70;99.90
4293;DHT22;2160;51.172;6.808;2023-03-30T19:52:50;15.80;99.90
4293;DHT22;2160;51.172;6.808;2023-03-30T19:55:19;15.80;99.90
4293;DHT22;2160;51.172;6.808;2023-03-30T19:57:48;15.80;99.90
4293;DHT22;2160;51.172;6.808;2023-03-30T20:00:17;15.80;99.90
4293;DHT22;2160;51.172;6.808;2023-03-30T20:02:48;15.70;99.90
4293;DHT22;2160;51.172;6.808;2023-03-30T20:05:16;15.40;99.90
4293;DHT22;2160;51.172;6.808;2023-03-30T20:07:45;15.50;99.90
4293;DHT22;2160;51.172;6.808;2023-03-30T20:10:15;15.50;99.90
4293;DHT22;2160;51.172;6.808;2023-03-30T20:12:43;15.50;99.90
4293;DHT22;2160;51.172;6.808;2023-03-30T20:15:13;15.50;99.90
4293;DHT22;2160;51.172;6.808;2023-03-30T20:17:40;15.50;99.90
4293;DHT22;2160;51.172;6.808;2023-03-30T20:20:10;15.70;99.90
4293;DHT22;2160;51.172;6.808;2023-03-30T20:22:39;15.60;99.90
4293;DHT22;2160;51.172;6.808;2023-03-30T20:25:09;15.60;99.90
4293;DHT22;2160;51.172;6.808;2023-03-30T20:27:36;15.50;99.90
4293;DHT22;2160;51.172;6.808;2023-03-30T20:30:05;15.40;99.90
4293;DHT22;2160;51.172;6.808;2023-03-30T20:32:38;15.40;99.90
4293;DHT22;2160;51.172;6.808;2023-03-30T20:35:08;15.40;99.90
4293;DHT22;2160;51.172;6.808;2023-03-30T20:37:36;15.30;99.90
4293;DHT22;2160;51.172;6.808;2023-03-30T20:40:03;15.30;99.90
4293;DHT22;2160;51.172;6.808;2023-03-30T20:42:35;15.30;99.90
4293;DHT22;2160;51.172;6.808;2023-03-30T20:45:06;15.40;99.90
4293;DHT22;2160;51.172;6.808;2023-03-30T20:47:33;15.40;99.90
4293;DHT22;2160;51.172;6.808;2023-03-30T20:50:02;15.50;99.90
4293;DHT22;2160;51.172;6.808;2023-03-30T20:52:29;15.50;99.90
4293;DHT22;2160;51.172;6.808;2023-03-30T20:54:57;15.50;99.90